createdAt,value
2022-12-25T00:02:26.649Z,8.80
2022-12-25T00:04:54.812Z,7.40
2022-12-25T00:07:23.034Z,8.90
2022-12-25T00:09:51.008Z,9.00
2022-12-25T00:12:21.125Z,7.50
2022-12-25T00:14:49.116Z,8.10
2022-12-25T00:17:17.246Z,7.40
2022-12-25T00:19:45.329Z,7.40
2022-12-25T00:22:13.498Z,7.70
2022-12-25T00:24:41.523Z,7.40
2022-12-25T00:27:09.609Z,7.60
2022-12-25T00:29:37.705Z,6.40
2022-12-25T00:32:05.710Z,6.50
2022-12-25T00:34:33.904Z,6.00
2022-12-25T00:37:01.904Z,6.50
2022-12-25T00:39:29.910Z,5.90
2022-12-25T00:42:16.832Z,5.00
2022-12-25T00:44:46.408Z,6.50
2022-12-25T00:47:15.771Z,6.90
2022-12-25T00:49:44.067Z,6.10
2022-12-25T00:52:12.173Z,8.20
2022-12-25T00:54:40.205Z,6.90
2022-12-25T00:57:08.246Z,7.00
2022-12-25T00:59:36.333Z,7.70
2022-12-25T01:02:23.322Z,7.40
2022-12-25T01:04:54.777Z,6.00
2022-12-25T01:07:25.336Z,5.90
2022-12-25T01:10:12.475Z,7.00
2022-12-25T01:12:42.561Z,5.70
2022-12-25T01:15:12.317Z,6.60
2022-12-25T01:17:41.547Z,7.60
2022-12-25T01:20:11.532Z,8.90
2022-12-25T01:22:39.898Z,8.20
2022-12-25T01:25:10.780Z,8.30
2022-12-25T01:27:41.153Z,7.90
2022-12-25T01:30:10.103Z,6.40
2022-12-25T01:32:38.493Z,7.90
2022-12-25T01:35:06.963Z,5.70
2022-12-25T01:37:35.179Z,5.50
2022-12-25T01:40:03.984Z,5.30
2022-12-25T01:45:36.993Z,5.30
2022-12-25T01:48:12.039Z,6.60
2022-12-25T01:50:44.589Z,6.50
2022-12-25T01:53:13.427Z,6.30
2022-12-25T01:58:14.398Z,10.40
2022-12-25T02:00:42.833Z,10.60
2022-12-25T02:03:11.076Z,13.50
2022-12-25T02:05:39.965Z,7.70
2022-12-25T02:10:39.213Z,4.10
2022-12-25T02:13:08.436Z,7.00
2022-12-25T02:15:48.341Z,6.60
2022-12-25T02:18:29.307Z,5.20
2022-12-25T02:21:30.027Z,6.60
2022-12-25T02:24:20.618Z,6.60
2022-12-25T02:27:14.599Z,6.20
2022-12-25T02:30:07.509Z,6.60
2022-12-25T02:32:47.251Z,6.50
2022-12-25T02:35:24.216Z,5.40
2022-12-25T02:38:02.330Z,6.80
2022-12-25T02:40:56.113Z,5.80
2022-12-25T02:43:57.362Z,4.50
2022-12-25T02:46:45.981Z,6.70
2022-12-25T02:52:31.488Z,6.30
2022-12-25T02:55:22.897Z,8.10
2022-12-25T02:58:13.285Z,7.70
2022-12-25T03:01:11.217Z,8.60
2022-12-25T03:04:00.321Z,6.60
2022-12-25T03:06:45.849Z,7.60
2022-12-25T03:09:41.638Z,9.20
2022-12-25T03:12:27.699Z,10.00
2022-12-25T03:15:14.644Z,5.80
2022-12-25T03:17:43.341Z,5.00
2022-12-25T03:20:30.158Z,6.30
2022-12-25T03:23:17.343Z,4.90
2022-12-25T03:26:03.966Z,5.00
2022-12-25T03:28:32.056Z,10.50
2022-12-25T03:31:17.397Z,18.40
2022-12-25T03:34:19.779Z,16.10
2022-12-25T03:37:43.528Z,18.20
2022-12-25T03:40:51.904Z,17.50
2022-12-25T03:43:44.678Z,14.30
2022-12-25T03:46:35.065Z,14.00
2022-12-25T03:49:33.684Z,10.10
2022-12-25T03:55:13.108Z,12.40
2022-12-25T03:57:59.617Z,12.20
2022-12-25T04:00:46.286Z,12.00
2022-12-25T04:03:33.040Z,12.70
2022-12-25T04:06:20.292Z,11.40
2022-12-25T04:09:06.733Z,11.00
2022-12-25T04:12:00.477Z,18.10
2022-12-25T04:14:49.229Z,12.20
2022-12-25T04:17:36.100Z,6.00
2022-12-25T04:20:23.254Z,30.60
2022-12-25T04:23:09.837Z,17.10
2022-12-25T04:25:56.331Z,16.70
2022-12-25T04:28:56.750Z,13.10
2022-12-25T04:31:43.356Z,10.00
2022-12-25T04:34:37.958Z,12.60
2022-12-25T04:37:05.963Z,10.60
2022-12-25T04:39:34.260Z,11.20
2022-12-25T04:42:02.475Z,9.00
2022-12-25T04:44:30.461Z,9.40
2022-12-25T04:46:58.497Z,8.60
2022-12-25T04:49:26.756Z,9.40
2022-12-25T04:51:54.843Z,12.00
2022-12-25T04:54:23.345Z,13.10
2022-12-25T04:56:51.362Z,11.80
2022-12-25T04:59:19.398Z,14.50
2022-12-25T05:01:47.562Z,13.30
2022-12-25T05:04:15.853Z,11.10
2022-12-25T05:06:43.971Z,27.70
2022-12-25T05:09:12.055Z,17.60
2022-12-25T05:11:40.055Z,13.90
2022-12-25T05:14:08.079Z,10.30
2022-12-25T05:16:36.379Z,11.90
2022-12-25T05:19:04.641Z,9.10
2022-12-25T05:21:32.684Z,11.50
2022-12-25T05:24:00.762Z,8.30
2022-12-25T05:26:29.058Z,8.20
2022-12-25T05:28:57.195Z,6.30
2022-12-25T05:31:25.287Z,7.30
2022-12-25T05:33:53.391Z,6.70
2022-12-25T05:36:21.391Z,8.60
2022-12-25T05:38:50.422Z,8.10
2022-12-25T05:41:18.653Z,7.70
2022-12-25T05:43:46.841Z,12.00
2022-12-25T05:46:15.084Z,16.90
2022-12-25T05:48:43.547Z,14.50
2022-12-25T05:51:14.237Z,15.20
2022-12-25T05:53:43.533Z,14.70
2022-12-25T05:56:12.336Z,15.20
2022-12-25T06:01:19.680Z,22.80
2022-12-25T06:03:47.975Z,13.40
2022-12-25T06:06:16.249Z,23.20
2022-12-25T06:08:44.434Z,18.10
2022-12-25T06:11:14.487Z,17.70
2022-12-25T06:13:43.284Z,17.20
2022-12-25T06:18:44.852Z,18.00
2022-12-25T06:21:15.101Z,15.90
2022-12-25T06:23:43.546Z,17.00
2022-12-25T06:26:14.829Z,17.00
2022-12-25T06:28:43.684Z,19.10
2022-12-25T06:33:42.792Z,21.80
2022-12-25T06:36:19.887Z,26.10
2022-12-25T06:38:48.214Z,34.80
2022-12-25T06:41:21.962Z,37.70
2022-12-25T06:43:56.124Z,45.30
2022-12-25T06:46:26.487Z,33.70
2022-12-25T06:48:55.675Z,36.80
2022-12-25T06:51:26.581Z,14.20
2022-12-25T06:53:55.902Z,21.00
2022-12-25T06:56:27.444Z,18.60
2022-12-25T06:58:58.754Z,35.50
2022-12-25T07:01:36.030Z,32.60
2022-12-25T07:04:07.891Z,49.90
2022-12-25T07:06:35.863Z,108.70
2022-12-25T07:09:03.954Z,64.40
2022-12-25T07:11:32.122Z,46.40
2022-12-25T07:14:00.161Z,51.30
2022-12-25T07:16:28.319Z,43.80
2022-12-25T07:18:56.339Z,55.90
2022-12-25T07:21:24.430Z,51.00
2022-12-25T07:23:52.682Z,42.20
2022-12-25T07:26:21.052Z,31.70
2022-12-25T07:28:49.071Z,30.50
2022-12-25T07:31:18.189Z,31.10
2022-12-25T07:33:46.334Z,28.20
2022-12-25T07:36:15.403Z,33.90
2022-12-25T07:38:44.216Z,32.40
2022-12-25T07:41:13.248Z,35.30
2022-12-25T07:43:41.848Z,34.00
2022-12-25T07:46:11.397Z,34.40
2022-12-25T07:48:39.721Z,13.90
2022-12-25T07:51:12.102Z,16.70
2022-12-25T07:53:41.018Z,12.30
2022-12-25T07:58:41.193Z,14.70
2022-12-25T08:01:20.304Z,19.60
2022-12-25T08:03:54.116Z,13.30
2022-12-25T08:06:26.885Z,9.10
2022-12-25T08:09:02.479Z,7.90
2022-12-25T08:11:30.566Z,10.20
2022-12-25T08:13:58.837Z,8.50
2022-12-25T08:16:26.936Z,7.60
2022-12-25T08:18:55.081Z,8.00
2022-12-25T08:21:23.091Z,7.90
2022-12-25T08:23:51.194Z,10.00
2022-12-25T08:26:21.489Z,10.60
2022-12-25T08:28:50.477Z,9.50
2022-12-25T08:31:28.064Z,13.20
2022-12-25T08:33:58.103Z,10.30
2022-12-25T08:36:26.700Z,18.10
2022-12-25T08:39:02.169Z,9.40
2022-12-25T08:41:32.165Z,18.40
2022-12-25T08:44:00.327Z,12.50
2022-12-25T08:46:28.409Z,11.30
2022-12-25T08:48:56.972Z,22.40
2022-12-25T08:51:26.294Z,20.50
2022-12-25T08:53:59.565Z,10.50
2022-12-25T08:56:29.303Z,10.20
2022-12-25T08:58:57.656Z,18.50
2022-12-25T09:01:25.877Z,7.90
2022-12-25T09:03:53.931Z,6.70
2022-12-25T09:06:21.948Z,8.10
2022-12-25T09:08:50.186Z,7.20
2022-12-25T09:11:19.959Z,10.20
2022-12-25T09:13:48.928Z,12.10
2022-12-25T09:18:46.337Z,6.70
2022-12-25T09:21:16.082Z,6.30
2022-12-25T09:23:44.744Z,4.60
2022-12-25T09:26:16.136Z,3.80
2022-12-25T09:28:50.760Z,4.30
2022-12-25T09:31:22.289Z,5.10
2022-12-25T09:33:51.804Z,8.50
2022-12-25T09:36:23.449Z,4.60
2022-12-25T09:38:52.809Z,4.00
2022-12-25T09:41:23.857Z,4.70
2022-12-25T09:43:58.586Z,4.70
2022-12-25T09:46:36.922Z,5.00
2022-12-25T09:49:27.279Z,6.90
2022-12-25T09:52:02.798Z,4.60
2022-12-25T09:54:37.122Z,4.10
2022-12-25T09:57:05.973Z,3.90
2022-12-25T09:59:34.007Z,3.50
2022-12-25T10:02:37.122Z,4.60
2022-12-25T10:05:27.534Z,5.70
2022-12-25T10:08:30.448Z,5.20
2022-12-25T10:11:25.843Z,6.50
2022-12-25T10:14:16.550Z,5.70
2022-12-25T10:17:00.001Z,6.20
2022-12-25T10:19:44.068Z,7.70
2022-12-25T10:22:30.353Z,5.70
2022-12-25T10:25:01.064Z,7.40
2022-12-25T10:27:38.130Z,6.10
2022-12-25T10:30:17.157Z,3.80
2022-12-25T10:32:47.047Z,4.20
2022-12-25T10:35:21.213Z,4.00
2022-12-25T10:38:01.108Z,5.70
2022-12-25T10:40:44.338Z,3.90
2022-12-25T10:43:18.343Z,4.00
2022-12-25T10:45:48.994Z,4.60
2022-12-25T10:48:24.197Z,4.80
2022-12-25T10:50:52.702Z,3.20
2022-12-25T10:53:24.444Z,4.30
2022-12-25T10:56:01.545Z,7.00
2022-12-25T10:58:31.747Z,4.40
2022-12-25T11:01:07.184Z,4.60
2022-12-25T11:03:39.241Z,4.30
2022-12-25T11:06:21.336Z,8.30
2022-12-25T11:08:59.189Z,3.30
2022-12-25T11:11:29.191Z,3.30
2022-12-25T11:14:02.218Z,5.80
2022-12-25T11:16:32.900Z,7.00
2022-12-25T11:19:01.160Z,7.90
2022-12-25T11:21:35.133Z,7.20
2022-12-25T11:24:05.983Z,11.10
2022-12-25T11:26:49.220Z,9.70
2022-12-25T11:29:43.378Z,7.10
2022-12-25T11:32:19.335Z,6.10
2022-12-25T11:34:49.171Z,4.10
2022-12-25T11:37:24.020Z,6.80
2022-12-25T11:39:52.166Z,17.30
2022-12-25T11:42:29.878Z,26.10
2022-12-25T11:45:24.293Z,12.60
2022-12-25T11:48:01.138Z,8.00
2022-12-25T11:50:30.962Z,17.30
2022-12-25T11:53:03.402Z,27.20
2022-12-25T11:55:46.407Z,26.70
2022-12-25T11:58:20.375Z,8.50
2022-12-25T12:00:51.964Z,26.50
2022-12-25T12:03:31.730Z,7.60
2022-12-25T12:06:15.219Z,6.00
2022-12-25T12:08:44.529Z,5.80
2022-12-25T12:11:25.493Z,9.00
2022-12-25T12:13:59.209Z,6.10
2022-12-25T12:16:27.703Z,3.90
2022-12-25T12:18:55.843Z,3.30
2022-12-25T12:21:30.258Z,3.10
2022-12-25T12:24:17.130Z,6.10
2022-12-25T12:26:47.277Z,2.90
2022-12-25T12:29:43.754Z,3.10
2022-12-25T12:32:20.859Z,2.30
2022-12-25T12:34:52.044Z,2.70
2022-12-25T12:37:31.742Z,3.10
2022-12-25T12:40:00.188Z,2.20
2022-12-25T12:42:31.895Z,3.00
2022-12-25T12:45:10.299Z,2.70
2022-12-25T12:47:43.226Z,2.30
2022-12-25T12:50:40.088Z,2.50
2022-12-25T12:53:22.412Z,3.20
2022-12-25T12:55:52.061Z,3.00
2022-12-25T12:58:36.127Z,3.60
2022-12-25T13:01:32.153Z,3.30
2022-12-25T13:04:09.509Z,1.70
2022-12-25T13:06:46.309Z,2.20
2022-12-25T13:09:28.555Z,3.50
2022-12-25T13:11:57.045Z,7.20
2022-12-25T13:14:25.647Z,11.40
2022-12-25T13:16:54.912Z,2.80
2022-12-25T13:19:26.973Z,2.50
2022-12-25T13:22:01.045Z,2.10
2022-12-25T13:24:32.194Z,2.10
2022-12-25T13:27:01.024Z,2.40
2022-12-25T13:32:03.856Z,2.00
2022-12-25T13:34:36.563Z,2.10
2022-12-25T13:37:16.682Z,2.50
2022-12-25T13:39:50.298Z,2.20
2022-12-25T13:42:22.820Z,2.50
2022-12-25T13:44:53.817Z,2.40
2022-12-25T13:47:35.902Z,2.30
2022-12-25T13:50:20.587Z,2.10
2022-12-25T13:52:49.174Z,3.20
2022-12-25T13:55:21.144Z,2.50
2022-12-25T13:58:04.642Z,3.00
2022-12-25T14:00:32.585Z,5.70
2022-12-25T14:03:01.080Z,7.10
2022-12-25T14:08:00.832Z,7.50
2022-12-25T14:10:38.667Z,8.60
2022-12-25T14:13:12.934Z,8.20
2022-12-25T14:15:42.159Z,9.60
2022-12-25T14:18:21.778Z,14.10
2022-12-25T14:21:21.312Z,14.00
2022-12-25T14:23:50.460Z,15.20
2022-12-25T14:26:28.776Z,16.10
2022-12-25T14:29:05.848Z,15.80
2022-12-25T14:31:35.509Z,15.20
2022-12-25T14:34:05.909Z,15.60
2022-12-25T14:36:34.603Z,12.40
2022-12-25T14:39:06.292Z,13.60
2022-12-25T14:41:42.130Z,14.30
2022-12-25T14:44:31.725Z,15.60
2022-12-25T14:47:05.147Z,13.90
2022-12-25T14:49:33.253Z,11.90
2022-12-25T14:52:24.911Z,9.60
2022-12-25T14:54:58.342Z,9.80
2022-12-25T14:57:34.026Z,9.80
2022-12-25T15:00:08.070Z,17.20
2022-12-25T15:02:46.015Z,16.40
2022-12-25T15:05:25.898Z,19.50
2022-12-25T15:08:10.347Z,17.00
2022-12-25T15:13:30.067Z,21.80
2022-12-25T15:16:13.658Z,16.70
2022-12-25T15:18:46.158Z,17.50
2022-12-25T15:21:25.836Z,18.60
2022-12-25T15:23:55.973Z,25.70
2022-12-25T15:26:25.580Z,28.20
2022-12-25T15:28:53.601Z,26.40
2022-12-25T15:31:23.494Z,26.90
2022-12-25T15:33:52.972Z,27.60
2022-12-25T15:36:21.884Z,28.70
2022-12-25T15:38:50.337Z,43.90
2022-12-25T15:41:53.030Z,70.20
2022-12-25T15:44:21.331Z,40.40
2022-12-25T15:46:50.009Z,30.80
2022-12-25T15:49:18.762Z,33.10
2022-12-25T15:51:47.209Z,40.20
2022-12-25T15:54:15.547Z,41.60
2022-12-25T15:56:45.310Z,66.20
2022-12-25T15:59:15.840Z,63.10
2022-12-25T16:01:48.491Z,60.20
2022-12-25T16:04:16.614Z,56.80
2022-12-25T16:06:44.903Z,68.20
2022-12-25T16:09:14.217Z,58.80
2022-12-25T16:11:43.493Z,57.80
2022-12-25T16:14:12.553Z,52.40
2022-12-25T16:16:41.901Z,48.40
2022-12-25T16:19:10.042Z,43.90
2022-12-25T16:21:42.416Z,46.00
2022-12-25T16:24:10.972Z,48.90
2022-12-25T16:26:39.040Z,52.30
2022-12-25T16:29:07.860Z,49.30
2022-12-25T16:31:37.787Z,52.70
2022-12-25T16:34:09.059Z,42.40
2022-12-25T16:36:39.266Z,36.60
2022-12-25T16:39:08.542Z,32.30
2022-12-25T16:41:36.616Z,41.80
2022-12-25T16:44:10.222Z,43.10
2022-12-25T16:46:40.282Z,43.60
2022-12-25T16:49:08.943Z,42.70
2022-12-25T16:51:37.366Z,37.30
2022-12-25T16:54:05.740Z,35.20
2022-12-25T16:56:36.740Z,38.40
2022-12-25T16:59:05.136Z,43.40
2022-12-25T17:01:33.247Z,43.70
2022-12-25T17:04:01.648Z,39.20
2022-12-25T17:06:29.897Z,36.40
2022-12-25T17:08:59.803Z,37.50
2022-12-25T17:11:30.820Z,39.60
2022-12-25T17:14:02.532Z,40.40
2022-12-25T17:16:34.641Z,40.50
2022-12-25T17:19:08.014Z,40.00
2022-12-25T17:21:38.386Z,45.80
2022-12-25T17:24:07.287Z,40.20
2022-12-25T17:26:35.546Z,58.40
2022-12-25T17:29:03.819Z,48.50
2022-12-25T17:31:32.170Z,55.80
2022-12-25T17:34:01.806Z,49.10
2022-12-25T17:36:30.545Z,53.80
2022-12-25T17:39:00.949Z,36.70
2022-12-25T17:41:29.117Z,58.50
2022-12-25T17:43:57.732Z,51.50
